Ashuelot River @ West Swanzey, Nh

Ashuelot River at Swanzey
 Total Drainage Area: 316 sq. miles 
 Drainage Area Controlled by Corps Dams: 147 sq. miles (47%) 
 Warning Flow/Stage: 3,700 cfs / 10.0 feet 
 Flood Flow/Stage: 5,700 cfs / 11.0 feet 
Date Time
(Eastern)
Stage
(ft)
Flow
(cfs)
CSM
(cfs / sq. mi.)
Water Temp.
(F)
Feb-26 01:45 am 6.43 352 1.1 1.1
Feb-26 12:45 am 6.43 352 1.1 1.1
Feb-25 11:45 pm 6.43 352 1.1 1.2
Feb-25 10:45 pm 6.43 352 1.1 1.3
Feb-25 09:45 pm 6.42 348 1.1 1.4
Feb-25 08:45 pm 6.42 348 1.1 1.5
Feb-25 07:45 pm 6.41 344 1.1 1.5
Feb-25 06:45 pm 6.40 341 1.1 1.4
Feb-25 05:45 pm 6.40 341 1.1 1.3
Feb-25 04:45 pm 6.40 341 1.1 1.3
Feb-25 03:45 pm 6.39 337 1.1 1.3
Feb-25 02:45 pm 6.37 330 1.0 1.2
Feb-25 01:45 pm 6.37 330 1.0 1.1
Feb-25 12:45 pm 6.36 326 1.0 0.9
Feb-25 11:45 am 6.37 330 1.0 0.6
Feb-25 10:45 am 6.37 330 1.0 0.5
Feb-25 09:45 am 6.39 337 1.1 0.4
Feb-25 08:45 am 6.39 337 1.1 0.4
Feb-25 07:45 am 6.40 341 1.1 0.5
Feb-25 06:45 am 6.42 348 1.1 0.7
Feb-25 05:45 am 6.43 352 1.1 1.0
Feb-25 04:45 am 6.43 352 1.1 1.2
Feb-25 03:45 am 6.44 355 1.1 1.4
Feb-25 02:45 am 6.46 363 1.2 1.6
Feb-25 01:45 am 6.47 367 1.2 1.7
Report Generated February 26, 2024 02:45 am